sensor_id;sensor_type;location;lat;lon;timestamp;temperature;humidity
69543;SHT31;56762;49.494;11.768;2022-11-20T00:01:04;1.33;85.96
69543;SHT31;56762;49.494;11.768;2022-11-20T00:03:32;1.37;85.80
69543;SHT31;56762;49.494;11.768;2022-11-20T00:06:00;1.32;84.65
69543;SHT31;56762;49.494;11.768;2022-11-20T00:08:28;1.32;85.87
69543;SHT31;56762;49.494;11.768;2022-11-20T00:10:56;1.35;85.65
69543;SHT31;56762;49.494;11.768;2022-11-20T00:13:24;1.40;85.18
69543;SHT31;56762;49.494;11.768;2022-11-20T00:15:58;1.40;84.96
69543;SHT31;56762;49.494;11.768;2022-11-20T00:18:26;1.43;85.59
69543;SHT31;56762;49.494;11.768;2022-11-20T00:20:54;1.51;85.08
69543;SHT31;56762;49.494;11.768;2022-11-20T00:23:28;1.51;84.69
69543;SHT31;56762;49.494;11.768;2022-11-20T00:25:55;1.47;85.71
69543;SHT31;56762;49.494;11.768;2022-11-20T00:28:23;1.50;85.41
69543;SHT31;56762;49.494;11.768;2022-11-20T00:30:51;1.46;86.45
69543;SHT31;56762;49.494;11.768;2022-11-20T00:33:20;1.54;85.90
69543;SHT31;56762;49.494;11.768;2022-11-20T00:35:47;1.54;85.75
69543;SHT31;56762;49.494;11.768;2022-11-20T00:38:15;1.53;85.94
69543;SHT31;56762;49.494;11.768;2022-11-20T00:40:43;1.60;84.98
69543;SHT31;56762;49.494;11.768;2022-11-20T00:43:16;1.64;85.11
69543;SHT31;56762;49.494;11.768;2022-11-20T00:45:44;1.67;83.74
69543;SHT31;56762;49.494;11.768;2022-11-20T00:48:11;1.70;83.44
69543;SHT31;56762;49.494;11.768;2022-11-20T00:50:42;1.64;83.65
69543;SHT31;56762;49.494;11.768;2022-11-20T00:53:09;1.63;84.76
69543;SHT31;56762;49.494;11.768;2022-11-20T00:55:37;1.63;84.65
69543;SHT31;56762;49.494;11.768;2022-11-20T00:58:05;1.61;85.00
69543;SHT31;56762;49.494;11.768;2022-11-20T01:00:39;1.64;85.48
69543;SHT31;56762;49.494;11.768;2022-11-20T01:03:07;1.63;85.11
69543;SHT31;56762;49.494;11.768;2022-11-20T01:05:35;1.67;84.89
69543;SHT31;56762;49.494;11.768;2022-11-20T01:08:04;1.67;85.39
69543;SHT31;56762;49.494;11.768;2022-11-20T01:10:32;1.75;84.46
69543;SHT31;56762;49.494;11.768;2022-11-20T01:13:00;1.77;84.19
69543;SHT31;56762;49.494;11.768;2022-11-20T01:15:46;1.80;85.47
69543;SHT31;56762;49.494;11.768;2022-11-20T01:18:14;1.80;85.41
69543;SHT31;56762;49.494;11.768;2022-11-20T01:20:42;1.81;84.64
69543;SHT31;56762;49.494;11.768;2022-11-20T01:23:11;1.80;84.01
69543;SHT31;56762;49.494;11.768;2022-11-20T01:25:39;1.77;84.80
69543;SHT31;56762;49.494;11.768;2022-11-20T01:28:07;1.75;85.48
69543;SHT31;56762;49.494;11.768;2022-11-20T01:30:35;1.77;84.98
69543;SHT31;56762;49.494;11.768;2022-11-20T01:33:03;1.81;84.24
69543;SHT31;56762;49.494;11.768;2022-11-20T01:35:30;1.81;83.65
69543;SHT31;56762;49.494;11.768;2022-11-20T01:37:58;1.77;84.14
69543;SHT31;56762;49.494;11.768;2022-11-20T01:40:27;1.74;85.29
69543;SHT31;56762;49.494;11.768;2022-11-20T01:43:12;1.77;84.05
69543;SHT31;56762;49.494;11.768;2022-11-20T01:46:01;1.81;83.30
69543;SHT31;56762;49.494;11.768;2022-11-20T01:48:34;1.78;83.46
69543;SHT31;56762;49.494;11.768;2022-11-20T01:51:04;1.82;84.22
69543;SHT31;56762;49.494;11.768;2022-11-20T01:53:33;1.84;84.11
69543;SHT31;56762;49.494;11.768;2022-11-20T01:56:06;1.84;83.86
69543;SHT31;56762;49.494;11.768;2022-11-20T01:58:40;1.82;84.08
69543;SHT31;56762;49.494;11.768;2022-11-20T02:01:10;1.85;83.85
69543;SHT31;56762;49.494;11.768;2022-11-20T02:03:38;1.84;84.45
69543;SHT31;56762;49.494;11.768;2022-11-20T02:06:11;1.81;85.21
69543;SHT31;56762;49.494;11.768;2022-11-20T02:08:40;1.82;84.42
69543;SHT31;56762;49.494;11.768;2022-11-20T02:11:09;1.81;85.21
69543;SHT31;56762;49.494;11.768;2022-11-20T02:13:37;1.80;85.55
69543;SHT31;56762;49.494;11.768;2022-11-20T02:16:15;1.80;86.01
69543;SHT31;56762;49.494;11.768;2022-11-20T02:18:44;1.81;86.49
69543;SHT31;56762;49.494;11.768;2022-11-20T02:21:20;1.82;86.61
69543;SHT31;56762;49.494;11.768;2022-11-20T02:26:46;1.82;86.18
69543;SHT31;56762;49.494;11.768;2022-11-20T02:29:19;1.82;85.86
69543;SHT31;56762;49.494;11.768;2022-11-20T02:31:50;1.75;86.04
69543;SHT31;56762;49.494;11.768;2022-11-20T02:34:18;1.63;85.79
69543;SHT31;56762;49.494;11.768;2022-11-20T02:36:48;1.74;86.63
69543;SHT31;56762;49.494;11.768;2022-11-20T02:39:19;1.75;86.44
69543;SHT31;56762;49.494;11.768;2022-11-20T02:41:48;1.73;85.70
69543;SHT31;56762;49.494;11.768;2022-11-20T02:44:16;1.68;85.69
69543;SHT31;56762;49.494;11.768;2022-11-20T02:46:43;1.66;86.17
69543;SHT31;56762;49.494;11.768;2022-11-20T02:49:11;1.57;85.46
69543;SHT31;56762;49.494;11.768;2022-11-20T02:51:39;1.59;85.82
69543;SHT31;56762;49.494;11.768;2022-11-20T02:54:07;1.57;85.44
69543;SHT31;56762;49.494;11.768;2022-11-20T02:56:37;1.59;87.02
69543;SHT31;56762;49.494;11.768;2022-11-20T02:59:05;1.61;85.04
69543;SHT31;56762;49.494;11.768;2022-11-20T03:01:33;1.61;85.85
69543;SHT31;56762;49.494;11.768;2022-11-20T03:04:01;1.59;86.48
69543;SHT31;56762;49.494;11.768;2022-11-20T03:06:29;1.57;86.05
69543;SHT31;56762;49.494;11.768;2022-11-20T03:08:57;1.63;85.80
69543;SHT31;56762;49.494;11.768;2022-11-20T03:11:25;1.64;86.02
69543;SHT31;56762;49.494;11.768;2022-11-20T03:13:55;1.68;85.58
69543;SHT31;56762;49.494;11.768;2022-11-20T03:16:23;1.68;85.09
69543;SHT31;56762;49.494;11.768;2022-11-20T03:18:52;1.67;85.03
69543;SHT31;56762;49.494;11.768;2022-11-20T03:21:19;1.66;86.09
69543;SHT31;56762;49.494;11.768;2022-11-20T03:23:47;1.68;85.54
69543;SHT31;56762;49.494;11.768;2022-11-20T03:26:17;1.70;85.16
69543;SHT31;56762;49.494;11.768;2022-11-20T03:28:46;1.70;85.67
69543;SHT31;56762;49.494;11.768;2022-11-20T03:31:17;1.75;86.28
69543;SHT31;56762;49.494;11.768;2022-11-20T03:33:45;1.80;85.59
69543;SHT31;56762;49.494;11.768;2022-11-20T03:36:16;1.73;86.09
69543;SHT31;56762;49.494;11.768;2022-11-20T03:38:44;1.68;85.39
69543;SHT31;56762;49.494;11.768;2022-11-20T03:41:14;1.71;86.32
69543;SHT31;56762;49.494;11.768;2022-11-20T03:43:47;1.78;86.45
69543;SHT31;56762;49.494;11.768;2022-11-20T03:46:17;1.82;86.20
69543;SHT31;56762;49.494;11.768;2022-11-20T03:48:45;1.78;85.63
69543;SHT31;56762;49.494;11.768;2022-11-20T03:51:18;1.78;84.92
69543;SHT31;56762;49.494;11.768;2022-11-20T03:53:48;1.77;85.16
69543;SHT31;56762;49.494;11.768;2022-11-20T03:56:18;1.73;85.93
69543;SHT31;56762;49.494;11.768;2022-11-20T03:58:46;1.74;86.94
69543;SHT31;56762;49.494;11.768;2022-11-20T04:01:17;1.78;86.54
69543;SHT31;56762;49.494;11.768;2022-11-20T04:03:45;1.82;86.06
69543;SHT31;56762;49.494;11.768;2022-11-20T04:06:18;1.74;87.08
69543;SHT31;56762;49.494;11.768;2022-11-20T04:08:46;1.81;87.07
69543;SHT31;56762;49.494;11.768;2022-11-20T04:11:21;1.84;87.10
69543;SHT31;56762;49.494;11.768;2022-11-20T04:13:50;1.80;87.67
69543;SHT31;56762;49.494;11.768;2022-11-20T04:16:21;1.84;88.05
69543;SHT31;56762;49.494;11.768;2022-11-20T04:18:52;1.90;87.79
69543;SHT31;56762;49.494;11.768;2022-11-20T04:21:21;1.90;86.83
69543;SHT31;56762;49.494;11.768;2022-11-20T04:23:50;1.84;87.03
69543;SHT31;56762;49.494;11.768;2022-11-20T04:26:19;1.87;86.45
69543;SHT31;56762;49.494;11.768;2022-11-20T04:28:49;1.87;87.46
69543;SHT31;56762;49.494;11.768;2022-11-20T04:31:18;1.94;86.72
69543;SHT31;56762;49.494;11.768;2022-11-20T04:33:48;1.88;87.35
69543;SHT31;56762;49.494;11.768;2022-11-20T04:36:17;1.93;87.52
69543;SHT31;56762;49.494;11.768;2022-11-20T04:38:45;1.87;87.11
69543;SHT31;56762;49.494;11.768;2022-11-20T04:41:23;1.94;87.05
69543;SHT31;56762;49.494;11.768;2022-11-20T04:43:53;1.95;86.99
69543;SHT31;56762;49.494;11.768;2022-11-20T04:46:27;1.98;87.51
69543;SHT31;56762;49.494;11.768;2022-11-20T04:48:56;1.99;87.70
69543;SHT31;56762;49.494;11.768;2022-11-20T04:51:24;1.97;87.75
69543;SHT31;56762;49.494;11.768;2022-11-20T04:53:52;2.02;87.31
69543;SHT31;56762;49.494;11.768;2022-11-20T04:56:20;2.01;87.42
69543;SHT31;56762;49.494;11.768;2022-11-20T04:58:47;1.99;87.56
69543;SHT31;56762;49.494;11.768;2022-11-20T05:01:18;2.01;87.49
69543;SHT31;56762;49.494;11.768;2022-11-20T05:03:46;2.02;88.02
69543;SHT31;56762;49.494;11.768;2022-11-20T05:06:18;2.02;87.97
69543;SHT31;56762;49.494;11.768;2022-11-20T05:08:45;2.02;87.89
69543;SHT31;56762;49.494;11.768;2022-11-20T05:11:15;1.93;87.86
69543;SHT31;56762;49.494;11.768;2022-11-20T05:13:43;1.97;87.64
69543;SHT31;56762;49.494;11.768;2022-11-20T05:16:12;1.93;87.97
69543;SHT31;56762;49.494;11.768;2022-11-20T05:18:41;1.97;88.07
69543;SHT31;56762;49.494;11.768;2022-11-20T05:21:10;1.99;88.15
69543;SHT31;56762;49.494;11.768;2022-11-20T05:23:40;1.98;88.03
69543;SHT31;56762;49.494;11.768;2022-11-20T05:26:13;2.01;87.66
69543;SHT31;56762;49.494;11.768;2022-11-20T05:28:42;2.08;86.99
69543;SHT31;56762;49.494;11.768;2022-11-20T05:31:12;2.11;87.33
69543;SHT31;56762;49.494;11.768;2022-11-20T05:33:41;1.99;87.62
69543;SHT31;56762;49.494;11.768;2022-11-20T05:36:10;1.98;87.81
69543;SHT31;56762;49.494;11.768;2022-11-20T05:38:40;2.02;87.88
69543;SHT31;56762;49.494;11.768;2022-11-20T05:41:10;2.07;87.29
69543;SHT31;56762;49.494;11.768;2022-11-20T05:43:39;2.07;87.67
69543;SHT31;56762;49.494;11.768;2022-11-20T05:46:08;2.15;87.85
69543;SHT31;56762;49.494;11.768;2022-11-20T05:48:38;2.11;87.89
69543;SHT31;56762;49.494;11.768;2022-11-20T05:51:08;2.15;87.86
69543;SHT31;56762;49.494;11.768;2022-11-20T05:53:37;2.18;88.02
69543;SHT31;56762;49.494;11.768;2022-11-20T05:56:15;2.14;88.08
69543;SHT31;56762;49.494;11.768;2022-11-20T05:58:43;2.17;87.96
69543;SHT31;56762;49.494;11.768;2022-11-20T06:01:14;2.19;87.69
69543;SHT31;56762;49.494;11.768;2022-11-20T06:03:43;2.14;88.25
69543;SHT31;56762;49.494;11.768;2022-11-20T06:06:13;2.21;87.60
69543;SHT31;56762;49.494;11.768;2022-11-20T06:08:41;2.19;87.95
69543;SHT31;56762;49.494;11.768;2022-11-20T06:11:11;2.19;88.16
69543;SHT31;56762;49.494;11.768;2022-11-20T06:13:40;2.19;87.89
69543;SHT31;56762;49.494;11.768;2022-11-20T06:16:09;2.21;88.03
69543;SHT31;56762;49.494;11.768;2022-11-20T06:18:37;2.19;87.55
69543;SHT31;56762;49.494;11.768;2022-11-20T06:21:07;2.18;87.64
69543;SHT31;56762;49.494;11.768;2022-11-20T06:23:35;2.22;87.51
69543;SHT31;56762;49.494;11.768;2022-11-20T06:26:04;2.18;87.84
69543;SHT31;56762;49.494;11.768;2022-11-20T06:28:32;2.24;87.74
69543;SHT31;56762;49.494;11.768;2022-11-20T06:31:02;2.24;87.62
69543;SHT31;56762;49.494;11.768;2022-11-20T06:33:30;2.26;87.53
69543;SHT31;56762;49.494;11.768;2022-11-20T06:35:58;2.26;87.68
69543;SHT31;56762;49.494;11.768;2022-11-20T06:38:35;2.22;87.40
69543;SHT31;56762;49.494;11.768;2022-11-20T06:41:03;2.25;86.98
69543;SHT31;56762;49.494;11.768;2022-11-20T06:43:31;2.30;87.58
69543;SHT31;56762;49.494;11.768;2022-11-20T06:45:59;2.30;87.37
69543;SHT31;56762;49.494;11.768;2022-11-20T06:48:29;2.32;87.71
69543;SHT31;56762;49.494;11.768;2022-11-20T06:50:57;2.35;87.40
69543;SHT31;56762;49.494;11.768;2022-11-20T06:53:25;2.35;87.51
69543;SHT31;56762;49.494;11.768;2022-11-20T06:55:56;2.33;88.21
69543;SHT31;56762;49.494;11.768;2022-11-20T06:58:27;2.35;87.52
69543;SHT31;56762;49.494;11.768;2022-11-20T07:00:57;2.32;87.62
69543;SHT31;56762;49.494;11.768;2022-11-20T07:03:25;2.40;87.88
69543;SHT31;56762;49.494;11.768;2022-11-20T07:05:56;2.40;87.93
69543;SHT31;56762;49.494;11.768;2022-11-20T07:08:24;2.32;88.11
69543;SHT31;56762;49.494;11.768;2022-11-20T07:10:52;2.45;87.79
69543;SHT31;56762;49.494;11.768;2022-11-20T07:13:20;2.43;88.16
69543;SHT31;56762;49.494;11.768;2022-11-20T07:15:48;2.43;88.10
69543;SHT31;56762;49.494;11.768;2022-11-20T07:18:16;2.48;87.58
69543;SHT31;56762;49.494;11.768;2022-11-20T07:20:44;2.48;88.06
69543;SHT31;56762;49.494;11.768;2022-11-20T07:23:13;2.40;88.22
69543;SHT31;56762;49.494;11.768;2022-11-20T07:25:40;2.46;87.90
69543;SHT31;56762;49.494;11.768;2022-11-20T07:28:08;2.45;88.68
69543;SHT31;56762;49.494;11.768;2022-11-20T07:30:37;2.49;88.40
69543;SHT31;56762;49.494;11.768;2022-11-20T07:33:05;2.56;87.71
69543;SHT31;56762;49.494;11.768;2022-11-20T07:35:33;2.50;88.30
69543;SHT31;56762;49.494;11.768;2022-11-20T07:38:02;2.56;88.60
69543;SHT31;56762;49.494;11.768;2022-11-20T07:40:31;2.59;87.95
69543;SHT31;56762;49.494;11.768;2022-11-20T07:42:59;2.56;87.68
69543;SHT31;56762;49.494;11.768;2022-11-20T07:45:27;2.64;88.16
69543;SHT31;56762;49.494;11.768;2022-11-20T07:47:54;2.64;87.80
69543;SHT31;56762;49.494;11.768;2022-11-20T07:50:22;2.69;86.73
69543;SHT31;56762;49.494;11.768;2022-11-20T07:52:50;2.70;86.19
69543;SHT31;56762;49.494;11.768;2022-11-20T07:55:18;2.64;86.65
69543;SHT31;56762;49.494;11.768;2022-11-20T07:57:54;2.66;87.06
69543;SHT31;56762;49.494;11.768;2022-11-20T08:00:22;2.66;86.61
69543;SHT31;56762;49.494;11.768;2022-11-20T08:02:50;2.66;86.41
69543;SHT31;56762;49.494;11.768;2022-11-20T08:05:17;2.63;87.00
69543;SHT31;56762;49.494;11.768;2022-11-20T08:07:45;2.70;87.31
69543;SHT31;56762;49.494;11.768;2022-11-20T08:10:14;2.72;87.61
69543;SHT31;56762;49.494;11.768;2022-11-20T08:12:45;2.72;87.89
69543;SHT31;56762;49.494;11.768;2022-11-20T08:15:33;2.73;87.08
69543;SHT31;56762;49.494;11.768;2022-11-20T08:18:02;2.75;86.80
69543;SHT31;56762;49.494;11.768;2022-11-20T08:20:50;2.79;87.26
69543;SHT31;56762;49.494;11.768;2022-11-20T08:23:18;2.76;87.73
69543;SHT31;56762;49.494;11.768;2022-11-20T08:25:49;2.84;87.08
69543;SHT31;56762;49.494;11.768;2022-11-20T08:28:17;2.86;87.65
69543;SHT31;56762;49.494;11.768;2022-11-20T08:30:50;2.90;87.03
69543;SHT31;56762;49.494;11.768;2022-11-20T08:33:18;2.93;87.02
69543;SHT31;56762;49.494;11.768;2022-11-20T08:35:46;2.93;86.28
69543;SHT31;56762;49.494;11.768;2022-11-20T08:38:14;2.87;86.42
69543;SHT31;56762;49.494;11.768;2022-11-20T08:40:42;2.84;86.30
69543;SHT31;56762;49.494;11.768;2022-11-20T08:43:31;2.84;86.80
69543;SHT31;56762;49.494;11.768;2022-11-20T08:46:01;2.89;86.70
69543;SHT31;56762;49.494;11.768;2022-11-20T08:48:28;2.89;86.63
69543;SHT31;56762;49.494;11.768;2022-11-20T08:50:57;2.87;87.60
69543;SHT31;56762;49.494;11.768;2022-11-20T08:53:25;2.87;87.12
69543;SHT31;56762;49.494;11.768;2022-11-20T08:55:53;2.87;87.26
69543;SHT31;56762;49.494;11.768;2022-11-20T08:58:21;2.90;86.75
69543;SHT31;56762;49.494;11.768;2022-11-20T09:00:48;2.94;87.10
69543;SHT31;56762;49.494;11.768;2022-11-20T09:03:17;2.97;86.89
69543;SHT31;56762;49.494;11.768;2022-11-20T09:05:45;2.97;86.83
69543;SHT31;56762;49.494;11.768;2022-11-20T09:08:13;2.96;87.19
69543;SHT31;56762;49.494;11.768;2022-11-20T09:10:41;2.97;87.91
69543;SHT31;56762;49.494;11.768;2022-11-20T09:13:08;3.01;87.21
69543;SHT31;56762;49.494;11.768;2022-11-20T09:15:36;2.99;87.68
69543;SHT31;56762;49.494;11.768;2022-11-20T09:18:05;2.91;87.72
69543;SHT31;56762;49.494;11.768;2022-11-20T09:20:34;3.01;88.11
69543;SHT31;56762;49.494;11.768;2022-11-20T09:23:02;3.04;87.68
69543;SHT31;56762;49.494;11.768;2022-11-20T09:25:29;3.15;87.89
69543;SHT31;56762;49.494;11.768;2022-11-20T09:27:58;3.17;88.43
69543;SHT31;56762;49.494;11.768;2022-11-20T09:30:26;3.18;87.30
69543;SHT31;56762;49.494;11.768;2022-11-20T09:32:54;3.18;87.51
69543;SHT31;56762;49.494;11.768;2022-11-20T09:35:22;3.24;87.62
69543;SHT31;56762;49.494;11.768;2022-11-20T09:37:52;3.25;88.25
69543;SHT31;56762;49.494;11.768;2022-11-20T09:40:21;3.27;87.25
69543;SHT31;56762;49.494;11.768;2022-11-20T09:42:55;3.32;86.54
69543;SHT31;56762;49.494;11.768;2022-11-20T09:45:35;3.35;86.20
69543;SHT31;56762;49.494;11.768;2022-11-20T09:48:16;3.39;86.27
69543;SHT31;56762;49.494;11.768;2022-11-20T09:50:49;3.39;86.83
69543;SHT31;56762;49.494;11.768;2022-11-20T09:53:27;3.46;86.73
69543;SHT31;56762;49.494;11.768;2022-11-20T09:55:57;3.46;87.04
69543;SHT31;56762;49.494;11.768;2022-11-20T09:58:31;3.46;87.84
69543;SHT31;56762;49.494;11.768;2022-11-20T10:01:09;3.51;86.99
69543;SHT31;56762;49.494;11.768;2022-11-20T10:03:44;3.48;87.28
69543;SHT31;56762;49.494;11.768;2022-11-20T10:06:15;3.54;87.05
69543;SHT31;56762;49.494;11.768;2022-11-20T10:08:53;3.51;87.34
69543;SHT31;56762;49.494;11.768;2022-11-20T10:11:30;3.45;87.77
69543;SHT31;56762;49.494;11.768;2022-11-20T10:14:10;3.51;87.43
69543;SHT31;56762;49.494;11.768;2022-11-20T10:16:46;3.48;88.06
69543;SHT31;56762;49.494;11.768;2022-11-20T10:19:27;3.61;88.04
69543;SHT31;56762;49.494;11.768;2022-11-20T10:22:03;3.66;85.98
69543;SHT31;56762;49.494;11.768;2022-11-20T10:24:42;3.68;85.93
69543;SHT31;56762;49.494;11.768;2022-11-20T10:27:32;3.63;85.99
69543;SHT31;56762;49.494;11.768;2022-11-20T10:30:08;3.65;86.92
69543;SHT31;56762;49.494;11.768;2022-11-20T10:32:38;3.56;87.15
69543;SHT31;56762;49.494;11.768;2022-11-20T10:35:16;3.62;87.19
69543;SHT31;56762;49.494;11.768;2022-11-20T10:37:49;3.66;86.79
69543;SHT31;56762;49.494;11.768;2022-11-20T10:40:23;3.70;86.80
69543;SHT31;56762;49.494;11.768;2022-11-20T10:42:56;3.70;85.57
69543;SHT31;56762;49.494;11.768;2022-11-20T10:45:35;3.68;85.77
69543;SHT31;56762;49.494;11.768;2022-11-20T10:48:15;3.62;86.69
69543;SHT31;56762;49.494;11.768;2022-11-20T10:50:53;3.55;87.15
69543;SHT31;56762;49.494;11.768;2022-11-20T10:53:35;3.58;87.10
69543;SHT31;56762;49.494;11.768;2022-11-20T10:56:11;3.58;87.00
69543;SHT31;56762;49.494;11.768;2022-11-20T10:58:49;3.55;87.71
69543;SHT31;56762;49.494;11.768;2022-11-20T11:01:20;3.51;88.48
69543;SHT31;56762;49.494;11.768;2022-11-20T11:03:50;3.52;87.36
69543;SHT31;56762;49.494;11.768;2022-11-20T11:06:23;3.55;88.30
69543;SHT31;56762;49.494;11.768;2022-11-20T11:08:57;3.68;88.38
69543;SHT31;56762;49.494;11.768;2022-11-20T11:11:29;3.75;87.95
69543;SHT31;56762;49.494;11.768;2022-11-20T11:14:04;3.82;87.75
69543;SHT31;56762;49.494;11.768;2022-11-20T11:16:32;3.72;87.62
69543;SHT31;56762;49.494;11.768;2022-11-20T11:19:04;3.75;87.63
69543;SHT31;56762;49.494;11.768;2022-11-20T11:21:32;3.78;87.46
69543;SHT31;56762;49.494;11.768;2022-11-20T11:24:01;3.75;87.31
69543;SHT31;56762;49.494;11.768;2022-11-20T11:26:58;3.62;87.80
69543;SHT31;56762;49.494;11.768;2022-11-20T11:29:31;3.55;87.18
69543;SHT31;56762;49.494;11.768;2022-11-20T11:32:04;3.49;87.62
69543;SHT31;56762;49.494;11.768;2022-11-20T11:34:32;3.48;87.99
69543;SHT31;56762;49.494;11.768;2022-11-20T11:37:01;3.45;87.46
69543;SHT31;56762;49.494;11.768;2022-11-20T11:39:31;3.46;87.37
69543;SHT31;56762;49.494;11.768;2022-11-20T11:42:01;3.55;87.83
69543;SHT31;56762;49.494;11.768;2022-11-20T11:44:32;3.59;87.55
69543;SHT31;56762;49.494;11.768;2022-11-20T11:47:23;3.68;87.15
69543;SHT31;56762;49.494;11.768;2022-11-20T11:50:01;3.70;87.72
69543;SHT31;56762;49.494;11.768;2022-11-20T11:52:30;3.73;87.53
69543;SHT31;56762;49.494;11.768;2022-11-20T11:55:02;3.80;87.51
69543;SHT31;56762;49.494;11.768;2022-11-20T11:57:43;3.85;86.37
69543;SHT31;56762;49.494;11.768;2022-11-20T12:00:15;3.73;86.94
69543;SHT31;56762;49.494;11.768;2022-11-20T12:02:53;3.51;87.41
69543;SHT31;56762;49.494;11.768;2022-11-20T12:05:26;3.55;86.65
69543;SHT31;56762;49.494;11.768;2022-11-20T12:07:58;3.45;86.77
69543;SHT31;56762;49.494;11.768;2022-11-20T12:10:39;3.52;86.22
69543;SHT31;56762;49.494;11.768;2022-11-20T12:13:18;3.55;87.90
69543;SHT31;56762;49.494;11.768;2022-11-20T12:15:48;3.63;89.41
69543;SHT31;56762;49.494;11.768;2022-11-20T12:18:17;3.75;88.14
69543;SHT31;56762;49.494;11.768;2022-11-20T12:20:53;3.90;88.18
69543;SHT31;56762;49.494;11.768;2022-11-20T12:23:28;4.06;86.59
69543;SHT31;56762;49.494;11.768;2022-11-20T12:26:03;4.16;86.98
69543;SHT31;56762;49.494;11.768;2022-11-20T12:28:41;4.18;87.03
69543;SHT31;56762;49.494;11.768;2022-11-20T12:31:22;4.11;86.66
69543;SHT31;56762;49.494;11.768;2022-11-20T12:34:35;4.17;87.73
69543;SHT31;56762;49.494;11.768;2022-11-20T12:37:16;4.16;88.20
69543;SHT31;56762;49.494;11.768;2022-11-20T12:39:49;4.20;88.61
69543;SHT31;56762;49.494;11.768;2022-11-20T12:42:26;4.25;88.81
69543;SHT31;56762;49.494;11.768;2022-11-20T12:45:29;4.31;87.92
69543;SHT31;56762;49.494;11.768;2022-11-20T12:48:12;4.41;88.15
69543;SHT31;56762;49.494;11.768;2022-11-20T12:50:51;4.48;88.06
69543;SHT31;56762;49.494;11.768;2022-11-20T12:53:44;4.45;87.94
69543;SHT31;56762;49.494;11.768;2022-11-20T12:56:23;4.44;88.50
69543;SHT31;56762;49.494;11.768;2022-11-20T12:59:03;4.57;86.79
69543;SHT31;56762;49.494;11.768;2022-11-20T13:01:40;4.64;86.43
69543;SHT31;56762;49.494;11.768;2022-11-20T13:04:18;4.65;86.16
69543;SHT31;56762;49.494;11.768;2022-11-20T13:06:50;4.65;86.18
69543;SHT31;56762;49.494;11.768;2022-11-20T13:09:19;4.72;85.78
69543;SHT31;56762;49.494;11.768;2022-11-20T13:11:52;4.71;86.67
69543;SHT31;56762;49.494;11.768;2022-11-20T13:14:32;4.67;86.92
69543;SHT31;56762;49.494;11.768;2022-11-20T13:17:06;4.64;87.14
69543;SHT31;56762;49.494;11.768;2022-11-20T13:19:37;4.67;87.35
69543;SHT31;56762;49.494;11.768;2022-11-20T13:22:07;4.72;86.09
69543;SHT31;56762;49.494;11.768;2022-11-20T13:24:35;4.76;86.70
69543;SHT31;56762;49.494;11.768;2022-11-20T13:27:20;4.83;86.85
69543;SHT31;56762;49.494;11.768;2022-11-20T13:30:01;4.79;87.43
69543;SHT31;56762;49.494;11.768;2022-11-20T13:32:30;4.85;85.69
69543;SHT31;56762;49.494;11.768;2022-11-20T13:35:00;4.79;86.56
69543;SHT31;56762;49.494;11.768;2022-11-20T13:37:30;4.79;86.70
69543;SHT31;56762;49.494;11.768;2022-11-20T13:40:13;4.82;85.41
69543;SHT31;56762;49.494;11.768;2022-11-20T13:42:44;4.78;86.70
69543;SHT31;56762;49.494;11.768;2022-11-20T13:45:22;4.73;86.51
69543;SHT31;56762;49.494;11.768;2022-11-20T13:47:53;4.72;86.84
69543;SHT31;56762;49.494;11.768;2022-11-20T13:50:40;4.73;87.39
69543;SHT31;56762;49.494;11.768;2022-11-20T13:53:21;4.71;87.14
69543;SHT31;56762;49.494;11.768;2022-11-20T13:55:55;4.62;87.62
69543;SHT31;56762;49.494;11.768;2022-11-20T13:58:36;4.60;88.08
69543;SHT31;56762;49.494;11.768;2022-11-20T14:01:10;4.58;87.91
69543;SHT31;56762;49.494;11.768;2022-11-20T14:03:40;4.64;87.41
69543;SHT31;56762;49.494;11.768;2022-11-20T14:06:30;4.65;88.27
69543;SHT31;56762;49.494;11.768;2022-11-20T14:08:59;4.68;88.00
69543;SHT31;56762;49.494;11.768;2022-11-20T14:11:28;4.69;87.97
69543;SHT31;56762;49.494;11.768;2022-11-20T14:13:58;4.71;88.28
69543;SHT31;56762;49.494;11.768;2022-11-20T14:16:30;4.67;87.70
69543;SHT31;56762;49.494;11.768;2022-11-20T14:19:26;4.65;87.45
69543;SHT31;56762;49.494;11.768;2022-11-20T14:22:07;4.57;88.55
69543;SHT31;56762;49.494;11.768;2022-11-20T14:24:35;4.61;88.36
69543;SHT31;56762;49.494;11.768;2022-11-20T14:27:03;4.57;88.54
69543;SHT31;56762;49.494;11.768;2022-11-20T14:29:34;4.54;89.16
69543;SHT31;56762;49.494;11.768;2022-11-20T14:32:03;4.50;88.98
69543;SHT31;56762;49.494;11.768;2022-11-20T14:34:37;4.48;89.01
69543;SHT31;56762;49.494;11.768;2022-11-20T14:37:11;4.44;88.88
69543;SHT31;56762;49.494;11.768;2022-11-20T14:39:48;4.50;88.49
69543;SHT31;56762;49.494;11.768;2022-11-20T14:42:18;4.47;88.89
69543;SHT31;56762;49.494;11.768;2022-11-20T14:44:47;4.48;89.16
69543;SHT31;56762;49.494;11.768;2022-11-20T14:47:18;4.45;89.48
69543;SHT31;56762;49.494;11.768;2022-11-20T14:49:48;4.47;88.35
69543;SHT31;56762;49.494;11.768;2022-11-20T14:52:18;4.45;88.22
69543;SHT31;56762;49.494;11.768;2022-11-20T14:54:47;4.44;88.16
69543;SHT31;56762;49.494;11.768;2022-11-20T14:57:24;4.41;89.02
69543;SHT31;56762;49.494;11.768;2022-11-20T15:00:05;4.44;88.12
69543;SHT31;56762;49.494;11.768;2022-11-20T15:02:33;4.45;88.03
69543;SHT31;56762;49.494;11.768;2022-11-20T15:05:02;4.48;86.98
69543;SHT31;56762;49.494;11.768;2022-11-20T15:07:32;4.47;87.31
69543;SHT31;56762;49.494;11.768;2022-11-20T15:10:04;4.45;87.57
69543;SHT31;56762;49.494;11.768;2022-11-20T15:12:34;4.44;87.92
69543;SHT31;56762;49.494;11.768;2022-11-20T15:15:03;4.45;87.39
69543;SHT31;56762;49.494;11.768;2022-11-20T15:17:34;4.45;87.31
69543;SHT31;56762;49.494;11.768;2022-11-20T15:20:11;4.44;87.47
69543;SHT31;56762;49.494;11.768;2022-11-20T15:22:40;4.42;88.19
69543;SHT31;56762;49.494;11.768;2022-11-20T15:25:13;4.44;88.07
69543;SHT31;56762;49.494;11.768;2022-11-20T15:27:41;4.41;88.18
69543;SHT31;56762;49.494;11.768;2022-11-20T15:30:14;4.42;88.05
69543;SHT31;56762;49.494;11.768;2022-11-20T15:32:43;4.40;87.18
69543;SHT31;56762;49.494;11.768;2022-11-20T15:35:14;4.36;87.19
69543;SHT31;56762;49.494;11.768;2022-11-20T15:37:43;4.37;87.92
69543;SHT31;56762;49.494;11.768;2022-11-20T15:40:11;4.40;88.16
69543;SHT31;56762;49.494;11.768;2022-11-20T15:42:39;4.44;87.96
69543;SHT31;56762;49.494;11.768;2022-11-20T15:45:29;4.40;87.85
69543;SHT31;56762;49.494;11.768;2022-11-20T15:47:58;4.34;88.24
69543;SHT31;56762;49.494;11.768;2022-11-20T15:50:33;4.37;88.37
69543;SHT31;56762;49.494;11.768;2022-11-20T15:53:02;4.31;88.12
69543;SHT31;56762;49.494;11.768;2022-11-20T15:55:30;4.31;88.65
69543;SHT31;56762;49.494;11.768;2022-11-20T15:57:58;4.31;89.00
69543;SHT31;56762;49.494;11.768;2022-11-20T16:00:25;4.37;88.34